Time;durP1;ratioP1;P1;durP2;ratioP2;P2;SDS_P1;SDS_P2;PMS_P1;PMS_P2;Temp;Humidity;BMP_temperature;BMP_pressure;BME280_temperature;BME280_humidity;BME280_pressure;Samples;Min_cycle;Max_cycle;Signal;HPM_P1;HPM_P2
2021/11/05 00:00:23;;;;;;;3.90;1.90;;;9.70;99.90;;;;;;5031588;28;20189;-86
2021/11/05 00:02:54;;;;;;;2.40;1.20;;;9.80;99.90;;;;;;5031720;28;20328;-87
2021/11/05 00:05:21;;;;;;;3.47;1.40;;;9.70;99.90;;;;;;5032033;28;20213;-87
2021/11/05 00:07:47;;;;;;;3.93;1.63;;;9.70;99.90;;;;;;5035132;28;20816;-86
2021/11/05 00:10:13;;;;;;;6.13;1.80;;;10.00;99.90;;;;;;5035748;28;20182;-86
2021/11/05 00:12:39;;;;;;;2.73;1.27;;;9.70;99.90;;;;;;5037151;28;20228;-85
2021/11/05 00:15:05;;;;;;;3.27;1.50;;;9.60;99.90;;;;;;5034660;28;20212;-85
2021/11/05 00:17:30;;;;;;;5.17;2.23;;;9.70;99.90;;;;;;5034966;28;20194;-86
2021/11/05 00:19:56;;;;;;;4.10;2.10;;;9.80;99.90;;;;;;5034813;28;20194;-86
2021/11/05 00:22:22;;;;;;;5.77;2.30;;;9.80;99.90;;;;;;5036048;28;20228;-89
2021/11/05 00:24:48;;;;;;;3.53;1.90;;;9.90;99.90;;;;;;5035865;28;20166;-87
2021/11/05 00:27:15;;;;;;;5.00;2.10;;;9.90;99.90;;;;;;5034697;28;20688;-87
2021/11/05 00:29:43;;;;;;;3.93;2.00;;;9.80;99.90;;;;;;5034840;28;20182;-86
2021/11/05 00:32:10;;;;;;;4.43;2.13;;;9.80;99.90;;;;;;5034339;28;20178;-85
2021/11/05 00:34:36;;;;;;;3.80;1.90;;;9.80;99.90;;;;;;5034551;28;20243;-86
2021/11/05 00:37:02;;;;;;;4.80;2.00;;;9.70;99.90;;;;;;5036047;28;20197;-86
2021/11/05 00:39:28;;;;;;;4.03;2.23;;;9.60;99.90;;;;;;5037050;28;20264;-86
2021/11/05 00:41:54;;;;;;;4.93;2.20;;;9.60;99.90;;;;;;5035601;28;20406;-86
2021/11/05 00:44:20;;;;;;;5.03;2.23;;;9.50;99.90;;;;;;5035893;28;20645;-90
2021/11/05 00:46:45;;;;;;;5.47;2.30;;;9.50;99.90;;;;;;5039800;28;20253;-88
2021/11/05 00:49:11;;;;;;;3.83;2.10;;;9.40;99.90;;;;;;5038958;28;20287;-87
2021/11/05 00:51:37;;;;;;;6.53;2.93;;;9.50;99.90;;;;;;5037581;28;20184;-88
2021/11/05 00:54:03;;;;;;;4.40;2.43;;;9.40;99.90;;;;;;5038164;28;20181;-86
2021/11/05 00:56:32;;;;;;;4.63;2.23;;;9.50;99.90;;;;;;5036307;28;20185;-88
2021/11/05 00:58:58;;;;;;;4.47;2.30;;;9.60;99.90;;;;;;5035774;28;20200;-86
2021/11/05 01:01:30;;;;;;;5.53;2.60;;;9.70;99.90;;;;;;5034437;28;20265;-88
2021/11/05 01:03:59;;;;;;;5.47;2.70;;;9.80;99.90;;;;;;5034288;28;20232;-86
2021/11/05 01:06:26;;;;;;;4.53;2.50;;;9.90;99.90;;;;;;5034708;28;20273;-86
2021/11/05 01:08:53;;;;;;;7.90;3.30;;;10.10;99.90;;;;;;5037326;28;20213;-86
2021/11/05 01:11:18;;;;;;;6.97;3.30;;;10.00;99.90;;;;;;5039417;28;20657;-88
2021/11/05 01:13:44;;;;;;;7.07;3.33;;;10.00;99.90;;;;;;5040555;28;20189;-88
2021/11/05 01:16:10;;;;;;;7.83;3.90;;;10.00;99.90;;;;;;5041659;28;20166;-88
2021/11/05 01:18:46;;;;;;;7.33;3.47;;;10.00;99.90;;;;;;5038931;28;20205;-90
2021/11/05 01:21:16;;;;;;;7.93;3.50;;;10.00;99.90;;;;;;5035740;28;20220;-91
2021/11/05 01:23:42;;;;;;;8.07;3.80;;;9.90;99.90;;;;;;5038856;28;20208;-88
2021/11/05 01:26:07;;;;;;;7.17;3.63;;;9.90;99.90;;;;;;5039626;28;20177;-86
2021/11/05 01:28:33;;;;;;;9.20;3.77;;;9.80;99.90;;;;;;5035084;28;20218;-91
2021/11/05 01:30:59;;;;;;;6.00;3.43;;;9.70;99.90;;;;;;5034541;28;20212;-93
2021/11/05 01:33:25;;;;;;;9.73;4.03;;;9.70;99.90;;;;;;5035102;28;20630;-92
2021/11/05 01:35:51;;;;;;;7.70;4.03;;;9.60;99.90;;;;;;5049372;28;20173;-87
2021/11/05 01:38:17;;;;;;;7.57;3.60;;;9.70;99.90;;;;;;5054777;28;20185;-88
2021/11/05 01:40:44;;;;;;;7.57;3.00;;;9.70;99.90;;;;;;5055208;28;20256;-87
2021/11/05 01:43:13;;;;;;;8.27;3.60;;;9.70;99.90;;;;;;5040695;28;20209;-86
2021/11/05 01:45:41;;;;;;;7.80;3.20;;;9.70;99.90;;;;;;5027989;28;20575;-88
2021/11/05 01:48:07;;;;;;;8.20;3.47;;;9.80;99.90;;;;;;5027178;28;20293;-85
2021/11/05 01:50:34;;;;;;;6.93;3.80;;;10.00;99.90;;;;;;5025026;28;20278;-90
2021/11/05 01:53:01;;;;;;;7.67;3.13;;;9.80;99.90;;;;;;5037592;28;20646;-89
2021/11/05 01:55:27;;;;;;;6.00;2.93;;;9.80;99.90;;;;;;5051165;28;20597;-89
2021/11/05 01:57:55;;;;;;;5.30;2.80;;;9.80;99.90;;;;;;5040472;28;20212;-90
2021/11/05 02:00:25;;;;;;;7.13;2.90;;;9.80;99.90;;;;;;5044178;28;20560;-85
2021/11/05 02:02:52;;;;;;;9.23;2.73;;;9.80;99.90;;;;;;5049678;28;20205;-84
2021/11/05 02:05:21;;;;;;;11.23;3.47;;;9.80;99.90;;;;;;5035337;28;20253;-85
2021/11/05 02:07:51;;;;;;;8.50;3.40;;;9.80;99.90;;;;;;5046986;28;20213;-90
2021/11/05 02:10:21;;;;;;;5.80;3.00;;;9.80;99.90;;;;;;5043202;28;20166;-85
2021/11/05 02:13:55;;;;;;;6.00;2.73;;;9.80;99.90;;;;;;5051965;28;20177;-89
2021/11/05 02:16:22;;;;;;;6.37;3.63;;;9.70;99.90;;;;;;5049589;28;20175;-88
2021/11/05 02:18:50;;;;;;;8.43;3.97;;;9.50;99.90;;;;;;5047000;28;20209;-89
2021/11/05 02:21:18;;;;;;;7.67;3.97;;;9.50;99.90;;;;;;5046096;28;20158;-90
2021/11/05 02:23:44;;;;;;;6.07;3.53;;;9.60;99.90;;;;;;5051970;28;20517;-86
2021/11/05 02:26:16;;;;;;;11.17;3.33;;;9.70;99.90;;;;;;5035347;28;20669;-89
2021/11/05 02:28:42;;;;;;;9.07;3.83;;;9.50;99.90;;;;;;5032972;28;20224;-91
2021/11/05 02:31:07;;;;;;;10.23;3.93;;;9.70;99.90;;;;;;5033414;28;20577;-89
2021/11/05 02:33:34;;;;;;;10.13;4.17;;;9.60;99.90;;;;;;5036983;28;20180;-85
2021/11/05 02:35:59;;;;;;;10.20;4.07;;;9.60;99.90;;;;;;5055918;28;20186;-85
2021/11/05 02:38:25;;;;;;;10.80;4.93;;;9.50;99.90;;;;;;5054327;28;20185;-94
2021/11/05 02:40:52;;;;;;;14.27;5.13;;;9.50;99.90;;;;;;5041803;28;20178;-90
2021/11/05 02:43:18;;;;;;;12.90;5.00;;;9.70;99.90;;;;;;5032718;28;20198;-92
2021/11/05 02:45:53;;;;;;;11.73;5.40;;;9.80;99.90;;;;;;5018885;28;20178;-93
2021/11/05 02:48:38;;;;;;;8.23;4.23;;;9.70;99.90;;;;;;5015545;28;20320;-93
2021/11/05 02:51:09;;;;;;;10.30;4.60;;;9.80;99.90;;;;;;5014116;28;20182;-90
2021/11/05 02:53:38;;;;;;;11.57;4.87;;;9.90;99.90;;;;;;5014616;28;20166;-91
2021/11/05 02:56:05;;;;;;;11.97;5.43;;;10.00;99.90;;;;;;5014092;28;20183;-93
2021/11/05 02:58:31;;;;;;;14.70;5.83;;;9.90;99.90;;;;;;5013915;28;20237;-91
2021/11/05 03:00:59;;;;;;;13.87;6.07;;;9.80;99.90;;;;;;5014101;28;20191;-88
2021/11/05 03:03:25;;;;;;;12.80;5.67;;;9.60;99.90;;;;;;5012572;28;20186;-88
2021/11/05 03:05:51;;;;;;;16.47;5.47;;;9.40;99.90;;;;;;5014110;28;20654;-88
2021/11/05 03:08:17;;;;;;;11.67;5.83;;;9.40;99.90;;;;;;5011289;28;20305;-91
2021/11/05 03:10:43;;;;;;;11.03;5.73;;;9.40;99.90;;;;;;5014169;28;20213;-90
2021/11/05 03:13:09;;;;;;;13.43;5.63;;;9.30;99.90;;;;;;5013751;28;20583;-90
2021/11/05 03:15:35;;;;;;;15.97;6.50;;;9.20;99.90;;;;;;5013282;28;20246;-87
2021/11/05 03:18:01;;;;;;;15.47;6.20;;;9.30;99.90;;;;;;5013717;28;20559;-88
2021/11/05 03:20:27;;;;;;;18.43;6.87;;;9.40;99.90;;;;;;5012748;28;20321;-85
2021/11/05 03:22:53;;;;;;;20.13;6.53;;;9.20;99.90;;;;;;5016996;28;20237;-84
2021/11/05 03:25:19;;;;;;;15.67;7.20;;;9.30;99.90;;;;;;5012973;28;20320;-87
2021/11/05 03:27:45;;;;;;;12.67;5.43;;;9.20;99.90;;;;;;5029251;28;20205;-86
2021/11/05 03:30:13;;;;;;;17.53;6.70;;;9.30;99.90;;;;;;5033166;28;20189;-90
2021/11/05 03:32:39;;;;;;;14.87;6.73;;;9.30;99.90;;;;;;5032481;28;20724;-91
2021/11/05 03:35:08;;;;;;;16.67;7.07;;;9.50;99.90;;;;;;5032834;28;20272;-88
2021/11/05 03:37:35;;;;;;;18.70;7.20;;;9.40;99.90;;;;;;5040282;28;20190;-86
2021/11/05 03:40:04;;;;;;;16.90;7.60;;;9.50;99.90;;;;;;5048040;28;20170;-92
2021/11/05 03:42:31;;;;;;;16.13;7.40;;;9.50;99.90;;;;;;5041134;28;20197;-92
2021/11/05 03:44:57;;;;;;;15.07;7.63;;;9.20;99.90;;;;;;5037427;28;20189;-89
2021/11/05 03:47:23;;;;;;;17.27;6.70;;;9.20;99.90;;;;;;5037828;28;20194;-91
2021/11/05 03:49:49;;;;;;;18.63;7.23;;;9.20;99.90;;;;;;5036938;28;20244;-91
2021/11/05 03:52:16;;;;;;;21.33;7.13;;;9.10;99.90;;;;;;5034289;28;20181;-91
2021/11/05 03:54:42;;;;;;;13.67;6.50;;;9.00;99.90;;;;;;5018378;28;20242;-93
2021/11/05 03:57:08;;;;;;;17.73;7.00;;;8.90;99.90;;;;;;5036006;28;20186;-89
2021/11/05 03:59:33;;;;;;;18.23;7.47;;;9.00;99.90;;;;;;5031646;28;20183;-88
2021/11/05 04:01:59;;;;;;;16.03;6.93;;;9.10;99.90;;;;;;5027855;28;20185;-90
2021/11/05 04:04:28;;;;;;;17.47;7.57;;;9.10;99.90;;;;;;5037065;28;20222;-86
2021/11/05 04:06:56;;;;;;;14.77;6.27;;;9.20;99.90;;;;;;5037005;28;20179;-90
2021/11/05 04:09:22;;;;;;;14.03;7.27;;;9.30;99.90;;;;;;5024635;28;20229;-88
2021/11/05 04:11:48;;;;;;;14.20;6.90;;;9.10;99.90;;;;;;5038158;28;20242;-88
2021/11/05 04:14:14;;;;;;;13.77;7.13;;;9.10;99.90;;;;;;5034758;28;20175;-91
2021/11/05 04:16:43;;;;;;;12.93;7.27;;;9.30;99.90;;;;;;5019929;28;20185;-92
2021/11/05 04:19:09;;;;;;;13.47;6.33;;;9.30;99.90;;;;;;5018955;28;20281;-92
2021/11/05 04:21:34;;;;;;;13.37;6.83;;;9.20;99.90;;;;;;5016700;28;20718;-94
2021/11/05 04:24:02;;;;;;;12.83;6.47;;;9.00;99.90;;;;;;5016798;28;20188;-88
2021/11/05 04:26:29;;;;;;;15.07;7.00;;;8.90;99.90;;;;;;5020666;28;20553;-85
2021/11/05 04:28:55;;;;;;;14.03;7.00;;;9.00;99.90;;;;;;5036629;28;20252;-90
2021/11/05 04:31:20;;;;;;;15.50;7.40;;;9.00;99.90;;;;;;5034398;28;20173;-86
2021/11/05 04:33:48;;;;;;;13.10;6.20;;;8.90;99.90;;;;;;5036302;28;20190;-93
2021/11/05 04:36:15;;;;;;;16.87;7.67;;;8.90;99.90;;;;;;5040330;28;20212;-93
2021/11/05 04:38:41;;;;;;;16.60;7.73;;;8.90;99.90;;;;;;5038527;28;20169;-87
2021/11/05 04:41:07;;;;;;;15.73;7.53;;;9.20;99.90;;;;;;5035353;28;20196;-88
2021/11/05 04:43:33;;;;;;;16.47;7.80;;;9.10;99.90;;;;;;5036487;28;20193;-92
2021/11/05 04:45:58;;;;;;;18.77;7.43;;;9.30;99.90;;;;;;5041583;28;20203;-89
2021/11/05 04:48:24;;;;;;;13.03;6.87;;;9.20;99.90;;;;;;5047174;28;20264;-88
2021/11/05 04:50:51;;;;;;;12.37;6.67;;;9.20;99.90;;;;;;5045615;28;20267;-92
2021/11/05 04:53:17;;;;;;;16.83;6.83;;;9.10;99.90;;;;;;5028674;28;20190;-87
2021/11/05 04:55:42;;;;;;;13.23;6.40;;;9.10;99.90;;;;;;5017436;28;20744;-91
2021/11/05 04:58:08;;;;;;;12.77;5.87;;;9.10;99.90;;;;;;5016985;28;20210;-87
2021/11/05 05:00:34;;;;;;;12.00;5.90;;;9.20;99.90;;;;;;5026563;28;20250;-86
2021/11/05 05:03:00;;;;;;;14.70;5.70;;;8.90;99.90;;;;;;5028558;28;20220;-84
2021/11/05 05:05:27;;;;;;;13.70;5.63;;;8.80;99.90;;;;;;5032226;28;20186;-88
2021/11/05 05:07:59;;;;;;;12.87;5.83;;;8.80;99.90;;;;;;5024931;28;20206;-87
2021/11/05 05:10:28;;;;;;;12.03;5.30;;;8.70;99.90;;;;;;5030521;28;20175;-85
2021/11/05 05:12:54;;;;;;;10.57;5.90;;;8.80;99.90;;;;;;5027795;28;20182;-85
2021/11/05 05:15:21;;;;;;;10.90;5.43;;;8.80;99.90;;;;;;5030449;28;20245;-85
2021/11/05 05:17:47;;;;;;;10.57;5.10;;;8.70;99.90;;;;;;5028979;28;20639;-86
2021/11/05 05:20:17;;;;;;;15.43;6.47;;;8.80;99.90;;;;;;5017399;28;20225;-93
2021/11/05 05:22:44;;;;;;;14.60;5.40;;;8.90;99.90;;;;;;5016614;28;20221;-88
2021/11/05 05:25:12;;;;;;;11.20;5.50;;;8.90;99.90;;;;;;5022132;28;20254;-91
2021/11/05 05:27:38;;;;;;;8.87;5.10;;;9.20;99.90;;;;;;5045433;28;20181;-91
2021/11/05 05:30:08;;;;;;;10.00;5.70;;;8.90;99.90;;;;;;5047636;28;20703;-91
2021/11/05 05:32:34;;;;;;;12.07;5.00;;;8.80;99.90;;;;;;5046578;28;20189;-85
2021/11/05 05:35:02;;;;;;;11.27;5.57;;;8.80;99.90;;;;;;5057635;28;20205;-91
2021/11/05 05:37:27;;;;;;;11.53;5.40;;;8.80;99.90;;;;;;5052084;28;20253;-91
2021/11/05 05:39:55;;;;;;;13.23;5.80;;;8.70;99.90;;;;;;5041394;28;20189;-93
2021/11/05 05:42:21;;;;;;;10.63;5.10;;;8.80;99.90;;;;;;5035835;28;20557;-92
2021/11/05 05:44:46;;;;;;;9.77;4.40;;;8.70;99.90;;;;;;5042443;28;20186;-89
2021/11/05 05:47:12;;;;;;;11.87;4.80;;;8.60;99.90;;;;;;5052896;28;20185;-92
2021/11/05 05:49:38;;;;;;;10.43;5.20;;;8.50;99.90;;;;;;5036846;28;20225;-93
2021/11/05 05:52:04;;;;;;;7.87;4.07;;;8.60;99.90;;;;;;5036103;28;20162;-92
2021/11/05 05:54:30;;;;;;;8.03;4.03;;;8.50;99.90;;;;;;5034588;28;20181;-89
2021/11/05 05:56:57;;;;;;;10.33;4.13;;;8.60;99.90;;;;;;5035124;28;20181;-90
2021/11/05 05:59:23;;;;;;;9.43;4.77;;;8.80;99.90;;;;;;5032978;28;20174;-94
2021/11/05 06:01:50;;;;;;;11.67;4.70;;;8.80;99.90;;;;;;5034973;28;20232;-91
2021/11/05 06:04:15;;;;;;;12.60;4.87;;;8.80;99.90;;;;;;5033760;28;20182;-94
2021/11/05 06:06:41;;;;;;;7.30;4.20;;;8.70;99.90;;;;;;5035775;28;20636;-92
2021/11/05 06:09:07;;;;;;;8.80;4.40;;;8.60;99.90;;;;;;5046698;28;20221;-87
2021/11/05 06:11:33;;;;;;;7.60;4.20;;;8.40;99.90;;;;;;5057210;28;20189;-90
2021/11/05 06:13:59;;;;;;;11.67;4.40;;;8.50;99.90;;;;;;5048757;28;20169;-92
2021/11/05 06:16:25;;;;;;;11.30;4.40;;;8.40;99.90;;;;;;5052560;28;20217;-93
2021/11/05 06:18:51;;;;;;;8.10;4.10;;;8.40;99.90;;;;;;5038329;28;20178;-93
2021/11/05 06:21:17;;;;;;;11.63;4.13;;;8.40;99.90;;;;;;5036441;28;20189;-93
2021/11/05 06:23:43;;;;;;;7.67;4.37;;;8.40;99.90;;;;;;5036134;28;20166;-93
2021/11/05 06:26:09;;;;;;;9.40;4.77;;;8.40;99.90;;;;;;5035414;28;20269;-92
2021/11/05 06:28:38;;;;;;;11.73;4.17;;;8.40;99.90;;;;;;5035757;28;20328;-93
2021/11/05 06:31:04;;;;;;;7.97;4.10;;;8.40;99.90;;;;;;5038290;28;20657;-85
2021/11/05 06:33:30;;;;;;;10.53;4.27;;;8.40;99.90;;;;;;5039536;28;20209;-87
2021/11/05 06:35:56;;;;;;;9.70;4.80;;;8.40;99.90;;;;;;5046639;28;20178;-84
2021/11/05 06:38:22;;;;;;;10.67;4.13;;;8.40;99.90;;;;;;5038445;28;20186;-87
2021/11/05 06:40:49;;;;;;;9.07;5.17;;;8.40;99.90;;;;;;5040071;28;20547;-87
2021/11/05 06:43:16;;;;;;;14.83;5.23;;;8.60;99.90;;;;;;5022382;28;20288;-85
2021/11/05 06:45:41;;;;;;;14.07;5.20;;;8.40;99.90;;;;;;5014092;28;20182;-93
2021/11/05 06:48:07;;;;;;;15.13;6.67;;;8.40;99.90;;;;;;5016465;28;20224;-92
2021/11/05 06:50:34;;;;;;;10.20;4.80;;;8.40;99.90;;;;;;5015080;28;20706;-92
2021/11/05 06:52:59;;;;;;;13.27;5.07;;;8.70;99.90;;;;;;5021298;28;20244;-88
2021/11/05 06:55:25;;;;;;;13.57;5.70;;;8.90;99.90;;;;;;5034505;28;20587;-93
2021/11/05 06:57:51;;;;;;;16.43;5.87;;;8.70;99.90;;;;;;5034982;28;20185;-93
2021/11/05 07:00:19;;;;;;;15.63;6.13;;;8.70;99.90;;;;;;5035223;28;20185;-94
2021/11/05 07:02:45;;;;;;;12.57;5.70;;;8.50;99.90;;;;;;5034798;28;20185;-93
2021/11/05 07:05:14;;;;;;;10.97;5.10;;;8.50;99.90;;;;;;5037817;28;20177;-94
2021/11/05 07:07:41;;;;;;;15.33;5.73;;;8.40;99.90;;;;;;5035951;28;20173;-93
2021/11/05 07:10:09;;;;;;;12.13;5.47;;;8.30;99.90;;;;;;5039879;28;20648;-90
2021/11/05 07:12:35;;;;;;;13.20;5.53;;;8.30;99.90;;;;;;5051504;28;20645;-86
2021/11/05 07:15:02;;;;;;;12.47;6.00;;;8.40;99.90;;;;;;5046674;28;20215;-87
2021/11/05 07:17:28;;;;;;;9.97;4.90;;;8.40;99.90;;;;;;5037217;28;20186;-91
2021/11/05 07:19:53;;;;;;;10.43;5.47;;;8.50;99.90;;;;;;5038251;28;20264;-91
2021/11/05 07:22:19;;;;;;;10.63;5.10;;;8.70;99.90;;;;;;5038612;28;20194;-93
2021/11/05 07:24:45;;;;;;;11.60;4.47;;;8.60;99.90;;;;;;5038530;28;20220;-93
2021/11/05 07:27:11;;;;;;;12.50;5.00;;;8.60;99.90;;;;;;5035903;28;20507;-92
2021/11/05 07:29:37;;;;;;;9.50;4.83;;;8.60;99.90;;;;;;5024650;28;20263;-85
2021/11/05 07:32:08;;;;;;;10.87;5.30;;;8.60;99.90;;;;;;5019295;28;20241;-83
2021/11/05 07:34:37;;;;;;;11.47;5.27;;;8.80;99.90;;;;;;5022407;28;20174;-84
2021/11/05 07:37:15;;;;;;;12.70;6.10;;;8.90;99.90;;;;;;5026319;28;20194;-81
2021/11/05 07:39:45;;;;;;;9.70;5.70;;;8.90;99.90;;;;;;5026162;28;20236;-88
2021/11/05 07:42:12;;;;;;;10.63;5.17;;;8.80;99.90;;;;;;5038339;28;20198;-82
2021/11/05 07:44:38;;;;;;;11.67;5.97;;;8.80;99.90;;;;;;5021527;28;20254;-88
2021/11/05 07:47:06;;;;;;;11.17;5.43;;;8.90;99.90;;;;;;5026035;28;20171;-89
2021/11/05 07:49:35;;;;;;;8.63;5.03;;;8.90;99.90;;;;;;5023445;28;20225;-84
2021/11/05 07:52:02;;;;;;;9.33;5.20;;;8.90;99.90;;;;;;5020342;28;20190;-85
2021/11/05 07:54:28;;;;;;;10.33;5.07;;;8.90;99.90;;;;;;5017460;28;20265;-83
2021/11/05 07:56:54;;;;;;;11.03;4.90;;;8.80;99.90;;;;;;5019069;28;20201;-87
2021/11/05 07:59:21;;;;;;;8.90;4.37;;;8.80;99.90;;;;;;5019430;28;20183;-87
2021/11/05 08:01:46;;;;;;;10.50;5.40;;;8.70;99.90;;;;;;5017288;28;20190;-84
2021/11/05 08:04:13;;;;;;;9.50;5.33;;;8.90;99.90;;;;;;5023245;28;20182;-85
2021/11/05 08:06:39;;;;;;;9.80;4.83;;;8.80;99.90;;;;;;5021303;28;20186;-86
2021/11/05 08:09:05;;;;;;;10.23;5.03;;;8.90;99.90;;;;;;5025811;28;20210;-83
2021/11/05 08:11:32;;;;;;;12.03;4.97;;;9.00;99.90;;;;;;5029579;28;20196;-84
2021/11/05 08:13:59;;;;;;;8.93;4.80;;;9.10;99.90;;;;;;5026539;28;20187;-80
2021/11/05 08:16:25;;;;;;;12.53;5.67;;;9.10;99.90;;;;;;5035535;28;20198;-83
2021/11/05 08:18:52;;;;;;;10.80;5.40;;;9.20;99.90;;;;;;5017716;28;20276;-83
2021/11/05 08:21:18;;;;;;;11.00;4.90;;;9.30;99.90;;;;;;5016846;28;20178;-86
2021/11/05 08:23:44;;;;;;;11.27;7.90;;;9.20;99.90;;;;;;5018908;28;20170;-88
2021/11/05 08:26:13;;;;;;;12.87;6.30;;;9.30;99.90;;;;;;5017361;28;20666;-87
2021/11/05 08:28:41;;;;;;;12.23;5.57;;;9.30;99.90;;;;;;5019442;28;20263;-86
2021/11/05 08:31:10;;;;;;;12.03;5.63;;;9.30;99.90;;;;;;5018258;28;20182;-84
2021/11/05 08:33:38;;;;;;;9.27;5.57;;;9.50;99.90;;;;;;5023183;28;20736;-87
2021/11/05 08:36:05;;;;;;;9.47;5.53;;;9.70;99.90;;;;;;5037141;28;20181;-87
2021/11/05 08:38:32;;;;;;;9.43;5.50;;;9.80;99.90;;;;;;5046128;28;20182;-85
2021/11/05 08:40:58;;;;;;;11.77;5.40;;;9.90;99.90;;;;;;5044695;28;20245;-88
2021/11/05 08:43:29;;;;;;;11.20;5.07;;;10.00;99.90;;;;;;5031635;28;20227;-85
2021/11/05 08:45:55;;;;;;;12.73;6.47;;;10.00;99.90;;;;;;5035828;28;20185;-87
2021/11/05 08:48:21;;;;;;;10.60;5.40;;;10.00;99.90;;;;;;5025042;28;20232;-89
2021/11/05 08:50:48;;;;;;;11.37;4.83;;;10.10;99.90;;;;;;5025078;28;20214;-89
2021/11/05 08:53:14;;;;;;;11.23;5.47;;;10.10;99.90;;;;;;5024689;28;20260;-80
2021/11/05 08:55:39;;;;;;;12.23;5.47;;;10.20;99.90;;;;;;5031607;28;20243;-86
2021/11/05 08:58:06;;;;;;;14.00;5.77;;;10.40;99.90;;;;;;5031756;28;20206;-87
2021/11/05 09:00:33;;;;;;;7.87;4.93;;;10.50;99.90;;;;;;5032098;28;20210;-86
2021/11/05 09:03:01;;;;;;;15.23;5.83;;;10.60;99.90;;;;;;5038460;28;20196;-82
2021/11/05 09:05:27;;;;;;;11.77;5.90;;;10.60;99.90;;;;;;5023407;28;20186;-83
2021/11/05 09:07:56;;;;;;;11.70;5.30;;;10.70;99.90;;;;;;5015113;28;20261;-81
2021/11/05 09:10:25;;;;;;;12.60;5.70;;;11.10;99.90;;;;;;5023790;28;20190;-82
2021/11/05 09:12:51;;;;;;;12.03;5.03;;;10.90;99.90;;;;;;5028453;28;20580;-83
2021/11/05 09:15:20;;;;;;;12.20;4.90;;;11.00;99.90;;;;;;5015710;28;20638;-81
2021/11/05 09:17:47;;;;;;;10.23;4.57;;;11.20;99.90;;;;;;5016332;28;20529;-82
2021/11/05 09:20:14;;;;;;;8.90;4.87;;;11.30;99.90;;;;;;5018637;28;20210;-81
2021/11/05 09:22:40;;;;;;;10.13;4.77;;;11.50;99.90;;;;;;5038403;28;20274;-85
2021/11/05 09:25:07;;;;;;;11.37;5.70;;;11.80;99.90;;;;;;5036773;28;20198;-81
2021/11/05 09:27:34;;;;;;;9.00;2.87;;;12.00;99.60;;;;;;5037112;28;20178;-84
2021/11/05 09:29:59;;;;;;;11.20;2.87;;;12.10;96.30;;;;;;5047073;28;20687;-83
2021/11/05 09:32:26;;;;;;;11.97;3.33;;;12.20;95.90;;;;;;5038973;28;20170;-82
2021/11/05 09:34:54;;;;;;;7.73;2.80;;;12.20;95.90;;;;;;5038462;28;20179;-86
2021/11/05 09:37:20;;;;;;;11.27;3.50;;;12.10;96.80;;;;;;5036754;28;20189;-86
2021/11/05 09:39:47;;;;;;;7.43;3.57;;;12.10;96.50;;;;;;5040727;28;20186;-82
2021/11/05 09:42:14;;;;;;;10.43;3.77;;;12.00;97.00;;;;;;5037699;28;20267;-81
2021/11/05 09:44:46;;;;;;;9.50;3.90;;;12.10;97.00;;;;;;5038847;28;20185;-88
2021/11/05 09:47:14;;;;;;;12.00;3.70;;;12.20;97.50;;;;;;5033811;28;20263;-86
2021/11/05 09:49:42;;;;;;;6.90;2.63;;;12.30;96.60;;;;;;5029319;28;20218;-86
2021/11/05 09:52:09;;;;;;;9.77;3.60;;;12.10;96.00;;;;;;5018460;28;20713;-86
2021/11/05 09:54:40;;;;;;;7.97;3.83;;;12.00;97.30;;;;;;5036175;28;20181;-87
2021/11/05 09:57:07;;;;;;;10.67;3.53;;;12.00;97.60;;;;;;5035816;28;20208;-86
2021/11/05 09:59:34;;;;;;;13.13;4.00;;;11.80;97.80;;;;;;5024979;28;20216;-84
2021/11/05 10:02:03;;;;;;;8.93;3.70;;;12.00;98.30;;;;;;5030135;28;20174;-89
2021/11/05 10:04:28;;;;;;;10.00;4.50;;;12.20;97.50;;;;;;5025898;28;20649;-86
2021/11/05 10:07:06;;;;;;;9.17;3.10;;;12.20;96.90;;;;;;5032188;28;20182;-86
2021/11/05 10:09:40;;;;;;;7.97;3.00;;;12.00;97.50;;;;;;5025075;28;20221;-84
2021/11/05 10:12:15;;;;;;;5.67;2.30;;;12.00;97.60;;;;;;5023180;28;20193;-82
2021/11/05 10:14:46;;;;;;;8.60;3.23;;;11.90;98.20;;;;;;5027138;28;20205;-84
2021/11/05 10:17:15;;;;;;;7.53;3.33;;;12.00;98.50;;;;;;5037301;28;20182;-89
2021/11/05 10:20:02;;;;;;;9.60;3.57;;;12.00;98.20;;;;;;5019644;28;20642;-88
2021/11/05 10:22:42;;;;;;;7.20;2.70;;;12.10;98.60;;;;;;5018246;28;20244;-89
2021/11/05 10:25:37;;;;;;;10.00;2.93;;;12.20;98.20;;;;;;5027835;28;20178;-82
2021/11/05 10:28:27;;;;;;;6.67;3.03;;;12.30;97.50;;;;;;5038596;28;20201;-87
2021/11/05 10:31:07;;;;;;;8.33;3.57;;;12.30;97.40;;;;;;5020019;28;20667;-82
2021/11/05 10:33:41;;;;;;;8.10;3.00;;;12.50;97.10;;;;;;5026414;28;20520;-89
2021/11/05 10:36:10;;;;;;;6.67;2.97;;;12.50;96.30;;;;;;5029534;28;20194;-89
2021/11/05 10:38:39;;;;;;;6.87;3.17;;;12.50;96.10;;;;;;5033340;28;20224;-87
2021/11/05 10:41:07;;;;;;;6.63;2.67;;;12.70;96.40;;;;;;5044668;28;20188;-86
2021/11/05 10:43:38;;;;;;;8.70;3.43;;;12.80;94.90;;;;;;5031876;28;20190;-85
2021/11/05 10:46:06;;;;;;;8.70;3.27;;;12.80;95.20;;;;;;5035258;28;20197;-85
2021/11/05 10:48:39;;;;;;;5.67;2.10;;;12.80;95.10;;;;;;5034136;28;20249;-84
2021/11/05 10:51:08;;;;;;;7.97;2.47;;;12.90;93.30;;;;;;5046457;28;20182;-83
2021/11/05 10:53:42;;;;;;;6.03;2.03;;;12.80;93.60;;;;;;5046795;28;20177;-82
2021/11/05 10:56:16;;;;;;;4.73;2.33;;;12.80;93.50;;;;;;5041184;28;20190;-85
2021/11/05 10:58:52;;;;;;;3.87;1.77;;;12.60;93.70;;;;;;5038424;28;20185;-85
2021/11/05 11:01:20;;;;;;;4.57;1.70;;;12.80;93.30;;;;;;5031899;28;20191;-86
2021/11/05 11:03:59;;;;;;;6.60;2.13;;;12.80;92.70;;;;;;5020865;28;20190;-81
2021/11/05 11:06:44;;;;;;;4.93;1.90;;;12.90;93.20;;;;;;5028133;28;20200;-84
2021/11/05 11:09:15;;;;;;;5.43;2.20;;;12.90;93.00;;;;;;5035020;28;20224;-84
2021/11/05 11:11:55;;;;;;;6.47;1.70;;;12.90;92.90;;;;;;5043751;28;20556;-85
2021/11/05 11:14:30;;;;;;;6.30;1.93;;;13.00;92.40;;;;;;5041170;28;20216;-86
2021/11/05 11:16:56;;;;;;;4.63;1.83;;;13.00;91.00;;;;;;5032485;28;20170;-86
2021/11/05 11:19:37;;;;;;;5.00;2.00;;;13.00;91.20;;;;;;5034836;28;20196;-87
2021/11/05 11:22:05;;;;;;;9.60;2.67;;;12.90;91.90;;;;;;5033510;28;20174;-87
2021/11/05 11:24:34;;;;;;;10.63;3.23;;;12.90;92.50;;;;;;5020343;28;20236;-88
2021/11/05 11:27:03;;;;;;;7.60;3.10;;;12.90;92.50;;;;;;5039490;28;20695;-87
2021/11/05 11:29:31;;;;;;;9.47;3.30;;;12.90;93.00;;;;;;5036281;28;20222;-86
2021/11/05 11:32:00;;;;;;;7.83;3.70;;;12.90;93.10;;;;;;5021845;28;20257;-86
2021/11/05 11:34:26;;;;;;;9.50;3.80;;;13.00;92.50;;;;;;5022295;28;20186;-89
2021/11/05 11:36:57;;;;;;;9.60;4.37;;;13.10;92.30;;;;;;5019159;28;20178;-90
2021/11/05 11:39:25;;;;;;;8.17;4.43;;;13.00;92.50;;;;;;5015769;28;20233;-90
2021/11/05 11:41:52;;;;;;;9.77;4.33;;;13.00;92.80;;;;;;5020209;28;20634;-90
2021/11/05 11:44:25;;;;;;;8.37;4.53;;;13.10;92.10;;;;;;5034270;28;20201;-87
2021/11/05 11:47:03;;;;;;;9.43;3.77;;;13.20;91.40;;;;;;5036742;28;20182;-89
2021/11/05 11:49:38;;;;;;;6.93;3.67;;;13.20;91.60;;;;;;5036631;28;20213;-87
2021/11/05 11:52:13;;;;;;;8.67;3.80;;;13.20;91.80;;;;;;5035318;28;20276;-84
2021/11/05 11:54:42;;;;;;;8.30;2.97;;;13.10;91.20;;;;;;5037683;28;20181;-89
2021/11/05 11:57:31;;;;;;;6.90;2.70;;;13.10;91.30;;;;;;5037964;28;20197;-91
2021/11/05 12:00:22;;;;;;;5.30;2.57;;;12.90;91.50;;;;;;5021797;28;20277;-91
2021/11/05 12:03:00;;;;;;;6.57;2.77;;;12.90;92.30;;;;;;5029748;28;20192;-90
2021/11/05 12:05:31;;;;;;;7.47;2.40;;;12.80;92.60;;;;;;5038279;28;20177;-90
2021/11/05 12:08:22;;;;;;;11.40;2.73;;;12.80;93.30;;;;;;5041112;28;20217;-89
2021/11/05 12:10:55;;;;;;;7.20;2.27;;;12.80;94.80;;;;;;5038214;28;20669;-84
2021/11/05 12:13:33;;;;;;;7.37;2.70;;;12.90;94.60;;;;;;5033134;28;20185;-82
2021/11/05 12:16:15;;;;;;;5.57;1.70;;;12.80;94.60;;;;;;5041049;28;20269;-85
2021/11/05 12:19:00;;;;;;;7.20;2.00;;;12.70;96.30;;;;;;5037991;28;20177;-89
2021/11/05 12:21:35;;;;;;;5.67;1.93;;;12.60;97.20;;;;;;5058438;28;20249;-87
2021/11/05 12:24:17;;;;;;;6.03;1.57;;;12.70;95.40;;;;;;5037198;28;20187;-89
2021/11/05 12:26:48;;;;;;;7.57;1.50;;;12.60;95.50;;;;;;5024310;28;20744;-89
2021/11/05 12:29:33;;;;;;;4.47;1.83;;;12.50;96.20;;;;;;5020911;28;20228;-89
2021/11/05 12:35:25;;;;;;;5.40;1.90;;;12.10;99.20;;;;;;5032737;28;20907;-87
2021/11/05 12:38:09;;;;;;;4.80;1.97;;;12.00;99.90;;;;;;5030362;28;20185;-84
2021/11/05 12:40:41;;;;;;;5.83;2.00;;;11.90;99.90;;;;;;5042794;28;20253;-84
2021/11/05 12:43:28;;;;;;;7.87;2.03;;;11.90;99.90;;;;;;5040329;28;20204;-83
2021/11/05 12:45:56;;;;;;;4.57;1.67;;;11.90;99.90;;;;;;5018678;28;20182;-86
2021/11/05 12:48:40;;;;;;;6.80;2.40;;;11.90;99.90;;;;;;5035925;28;20235;-85
2021/11/05 12:51:30;;;;;;;8.10;2.87;;;11.80;99.90;;;;;;5035325;28;20194;-83
2021/11/05 12:54:11;;;;;;;8.87;3.47;;;11.90;99.90;;;;;;5039002;28;20276;-85
2021/11/05 12:56:41;;;;;;;7.33;2.70;;;11.90;99.90;;;;;;5037255;28;20193;-84
2021/11/05 12:59:13;;;;;;;6.73;2.63;;;12.00;99.90;;;;;;5035486;28;20185;-87